• Join FlightAware (Why Join?)
  • Login
  • US Flag 
08:22AM EDT


 

Airport Tracker/Info


-or-


 

Live Flight TrackerFlight Track Log ✈ SKW5631 ✈ 28-04-2013 ✈ KSFO - KBFL

Flight Track Log - Related Links

Times and Time Zones

All times are in EDT time to prevent confusion due to time zone crossing. See the SKW5631 flight status page for this flight to view local times or setup timezone preferences in your user account.

Time Position Orientation Groundspeed Altitude Reporting Facility
EDT Latitude Longitude Course Direction KTS MPH feet Rate Location/Type
08:34PM 37.6333 -122.3500 38° Northeast 141 162 1,400  Level Northern Cal TRACON
08:35PM 37.6833 -122.3000 38° Northeast 179 206 2,800 1,200 Climbing Northern Cal TRACON
08:36PM 37.6875 -122.2828 73° East 166 191 3,400 1,560 Climbing Oakland Center
08:37PM 37.7256 -122.2192 53° Northeast 185 213 5,200 1,620 Climbing Oakland Center
08:38PM 37.7356 -122.1558 79° East 186 214 6,700 1,380 Climbing Oakland Center
08:39PM 37.7494 -122.0889 75° East 194 223 8,100 1,320 Climbing Oakland Center
08:40PM 37.7617 -122.0217 77° East 196 226 9,500 1,140 Climbing Oakland Center
08:41PM 37.7733 -121.9531 78° East 199 229 10,500 960 Climbing Oakland Center
08:42PM 37.7675 -121.8808 96° East 221 254 11,500 1,200 Climbing Oakland Center
08:42PM 37.7333 -121.8667 162° South 231 266 12,300 1,020 Climbing Northern Cal TRACON
08:44PM 37.6550 -121.8044 148° Southeast 227 261 13,600 960 Climbing Oakland Center
08:45PM 37.6008 -121.7650 150° Southeast 224 258 14,800 1,020 Climbing Oakland Center
08:46PM 37.5761 -121.6917 113° Southeast 228 262 15,700 960 Climbing Oakland Center
08:47PM 37.5433 -121.6019 115° Southeast 235 270 16,800 960 Climbing Oakland Center
08:48PM 37.5161 -121.5269 115° Southeast 237 273 17,700 780 Climbing Oakland Center
08:49PM 37.4878 -121.4497 115° Southeast 241 277 18,400 720 Climbing Oakland Center
08:50PM 37.4586 -121.3717 115° Southeast 246 283 19,200 780 Climbing Oakland Center
08:51PM 37.4317 -121.2936 113° Southeast 246 283 20,000 780 Climbing Oakland Center
08:52PM 37.4033 -121.2147 114° Southeast 247 284 20,800 660 Climbing Oakland Center
08:53PM 37.3717 -121.1253 114° Southeast 251 289 21,400 540 Climbing Oakland Center
08:54PM 37.3247 -121.0583 131° Southeast 258 297 22,000 540 Climbing Oakland Center
08:55PM 37.2711 -120.9989 139° Southeast 256 295 22,600 480 Climbing Oakland Center
08:56PM 37.2156 -120.9389 139° Southeast 262 302 23,000 180 Climbing Oakland Center
08:57PM 37.1547 -120.8792 142° Southeast 276 318 23,000  Level Oakland Center
08:58PM 37.0936 -120.8175 141° Southeast 281 323 23,000  Level Oakland Center
08:59PM 37.0322 -120.7558 141° Southeast 287 330 23,000  Level Oakland Center
09:00PM 36.9758 -120.6903 137° Southeast 283 326 23,000  Level Oakland Center
09:01PM 36.9200 -120.6214 135° Southeast 294 338 23,000  Level Oakland Center
09:02PM 36.8494 -120.5464 140° Southeast 285 328 23,000  Level Oakland Center
09:03PM 36.7917 -120.4850 140° Southeast 283 326 23,000  Level Oakland Center
09:04PM 36.7342 -120.4194 138° Southeast 282 325 23,000  Level Oakland Center
09:05PM 36.6750 -120.3575 140° Southeast 278 320 23,000  Level Oakland Center
09:06PM 36.6147 -120.2939 140° Southeast 287 330 23,000 -540 Level Oakland Center
09:07PM 36.5533 -120.2286 139° Southeast 309 356 22,000 -1,200 Descending Oakland Center
09:08PM 36.4839 -120.1564 140° Southeast 329 379 20,600 -1,380 Descending Oakland Center
09:09PM 36.4131 -120.0822 140° Southeast 330 380 19,200 -1,500 Descending Oakland Center
09:10PM 36.3453 -120.0069 138° Southeast 326 375 17,600 -1,740 Descending Oakland Center
09:12PM 36.2650 -119.9175 138° Southeast 322 371 15,700 -1,740 Descending Oakland Center
09:13PM 36.1981 -119.8456 139° Southeast 320 368 14,100 -1,380 Descending Oakland Center
09:14PM 36.1331 -119.7758 139° Southeast 311 358 13,000 -540 Descending Oakland Center
09:15PM 36.0728 -119.7108 139° Southeast 290 334 13,000  Level Oakland Center
09:17PM 35.9622 -119.5950 140° Southeast 259 298 13,000  Level Oakland Center
09:18PM 35.9086 -119.5367 139° Southeast 255 293 13,000  Level Oakland Center
09:19PM 35.8525 -119.4789 140° Southeast 259 298 13,000 -240 Level Oakland Center
09:20PM 35.7975 -119.4172 138° Southeast 263 303 12,600 -1,020 Descending Oakland Center
09:21PM 35.7417 -119.3503 136° Southeast 272 313 11,000 -1,560 Descending Oakland Center
09:22PM 35.6814 -119.2792 136° Southeast 288 331 9,500 -1,980 Descending Oakland Center
09:23PM 35.6114 -119.1917 135° Southeast 295 339 7,000 -2,160 Descending Oakland Center
09:24PM 35.5519 -119.1206 136° Southeast 296 341 5,100 -1,620 Descending Oakland Center
09:25PM 35.5031 -119.0611 135° Southeast 294 338 3,800 -1,320 Descending Oakland Center
09:28PM 35.4333 -119.0500 151° Southeast  Level FlightAware Approximate
09:35PM 35.4339 -119.0577 151° Southeast  Level Estimated
09:36PM 35.4333 -119.0500 151° Southeast  Level FlightAware Approximate